Time;durP1;ratioP1;P1;durP2;ratioP2;P2;SDS_P1;SDS_P2;PMS_P1;PMS_P2;Temp;Humidity;BMP_temperature;BMP_pressure;BME280_temperature;BME280_humidity;BME280_pressure;Samples;Min_cycle;Max_cycle;Signal;HPM_P1;HPM_P2
2022/04/01 00:02:02;;;;;;;3.40;3.07;;;;;;;;;;5072484;28;20477;-56
2022/04/01 00:04:31;;;;;;;3.47;2.80;;;;;;;;;;5072136;28;20444;-56
2022/04/01 00:06:58;;;;;;;3.97;2.90;;;;;;;;;;5072289;28;20441;-55
2022/04/01 00:09:24;;;;;;;3.67;2.87;;;;;;;;;;5072028;28;20935;-56
2022/04/01 00:11:51;;;;;;;3.17;2.87;;;;;;;;;;5072069;28;20495;-57
2022/04/01 00:14:17;;;;;;;4.93;2.73;;;;;;;;;;5072138;28;20486;-56
2022/04/01 00:16:43;;;;;;;3.13;2.83;;;;;;;;;;5072134;28;20444;-55
2022/04/01 00:19:12;;;;;;;3.00;2.67;;;;;;;;;;5072036;28;20466;-56
2022/04/01 00:21:38;;;;;;;3.73;3.00;;;;;;;;;;5072049;28;20525;-56
2022/04/01 00:24:05;;;;;;;2.97;2.70;;;;;;;;;;5071660;28;20492;-58
2022/04/01 00:26:31;;;;;;;3.70;3.00;;;;;;;;;;5071961;28;20477;-57
2022/04/01 00:28:57;;;;;;;2.77;2.57;;;;;;;;;;5071976;28;20441;-56
2022/04/01 00:31:23;;;;;;;3.23;2.83;;;;;;;;;;5071982;28;20206;-57
2022/04/01 00:34:15;;;;;;;2.87;2.60;;;;;;;;;;5071964;28;20270;-57
2022/04/01 00:36:36;;;;;;;3.70;2.70;;;;;;;;;;5071845;28;20195;-57
2022/04/01 00:39:02;;;;;;;3.67;2.90;;;;;;;;;;5071983;28;20461;-56
2022/04/01 00:41:28;;;;;;;2.97;2.77;;;;;;;;;;5072605;28;20430;-56
2022/04/01 00:44:09;;;;;;;4.47;2.90;;;;;;;;;;5075782;28;20203;-57
2022/04/01 00:46:35;;;;;;;3.63;2.77;;;;;;;;;;5075630;28;20465;-57
2022/04/01 00:49:02;;;;;;;2.90;2.57;;;;;;;;;;5076089;28;20471;-58
2022/04/01 00:51:28;;;;;;;3.70;2.57;;;;;;;;;;5076113;28;20203;-58
2022/04/01 00:53:56;;;;;;;2.83;2.53;;;;;;;;;;5075501;28;20564;-58
2022/04/01 00:56:23;;;;;;;3.63;2.90;;;;;;;;;;5075561;28;20430;-57
2022/04/01 00:58:49;;;;;;;2.67;2.47;;;;;;;;;;5075739;28;20528;-57
2022/04/01 01:01:15;;;;;;;3.97;2.57;;;;;;;;;;5075948;28;20491;-57
2022/04/01 01:03:42;;;;;;;3.47;2.50;;;;;;;;;;5075723;28;20430;-57
2022/04/01 01:06:08;;;;;;;3.83;2.63;;;;;;;;;;5075667;28;20200;-58
2022/04/01 01:08:34;;;;;;;3.03;2.17;;;;;;;;;;5075529;28;20798;-57
2022/04/01 01:11:01;;;;;;;2.93;2.30;;;;;;;;;;5073626;28;20623;-57
2022/04/01 01:13:29;;;;;;;3.60;2.50;;;;;;;;;;5073662;28;20478;-57
2022/04/01 01:15:56;;;;;;;3.03;2.53;;;;;;;;;;5073558;28;20433;-56
2022/04/01 01:18:22;;;;;;;3.90;2.50;;;;;;;;;;5075293;28;20928;-57
2022/04/01 01:20:49;;;;;;;2.93;2.10;;;;;;;;;;5075135;28;20771;-57
2022/04/01 01:23:15;;;;;;;3.47;2.40;;;;;;;;;;5073564;28;20448;-58
2022/04/01 01:25:42;;;;;;;3.00;2.27;;;;;;;;;;5075092;28;20434;-57
2022/04/01 01:28:08;;;;;;;4.17;2.10;;;;;;;;;;5075013;28;20564;-56
2022/04/01 01:30:34;;;;;;;2.47;2.27;;;;;;;;;;5075141;28;20457;-57
2022/04/01 01:33:01;;;;;;;2.27;2.07;;;;;;;;;;5075049;28;21038;-57
2022/04/01 01:35:28;;;;;;;3.20;2.20;;;;;;;;;;5075194;28;20432;-58
2022/04/01 01:37:54;;;;;;;2.47;2.13;;;;;;;;;;5074831;28;20491;-57
2022/04/01 01:40:20;;;;;;;4.17;2.60;;;;;;;;;;5074880;28;20437;-58
2022/04/01 01:42:48;;;;;;;3.23;2.33;;;;;;;;;;5074939;28;20430;-58
2022/04/01 01:45:15;;;;;;;2.63;1.93;;;;;;;;;;5074983;28;20231;-57
2022/04/01 01:47:41;;;;;;;2.23;2.00;;;;;;;;;;5074770;28;20935;-57
2022/04/01 01:55:37;;;;;;;2.40;2.00;;;;;;;;;;5074828;28;20421;-58
2022/04/01 01:58:05;;;;;;;5.37;3.00;;;;;;;;;;5074633;28;20445;-59
2022/04/01 02:00:31;;;;;;;2.90;2.37;;;;;;;;;;5074477;28;20207;-57
2022/04/01 02:02:57;;;;;;;3.37;2.07;;;;;;;;;;5074634;28;20532;-57
2022/04/01 02:05:23;;;;;;;3.00;2.17;;;;;;;;;;5074564;28;20512;-58
2022/04/01 02:07:49;;;;;;;3.17;2.27;;;;;;;;;;5074435;28;20540;-58
2022/04/01 02:10:15;;;;;;;5.37;2.30;;;;;;;;;;5074581;28;20191;-58
2022/04/01 02:12:43;;;;;;;2.40;2.20;;;;;;;;;;5074442;28;20478;-58
2022/04/01 02:15:11;;;;;;;4.57;2.20;;;;;;;;;;5074390;28;20513;-58
2022/04/01 02:17:37;;;;;;;2.43;2.10;;;;;;;;;;5074247;28;20448;-58
2022/04/01 02:20:05;;;;;;;2.87;2.53;;;;;;;;;;5074267;28;20944;-59
2022/04/01 02:22:31;;;;;;;3.73;2.40;;;;;;;;;;5074358;28;20484;-58
2022/04/01 02:24:57;;;;;;;2.50;2.27;;;;;;;;;;5074009;28;20945;-58
2022/04/01 02:27:24;;;;;;;2.93;2.00;;;;;;;;;;5074039;28;20489;-58
2022/04/01 02:29:50;;;;;;;2.30;2.10;;;;;;;;;;5074067;28;20207;-59
2022/04/01 02:32:17;;;;;;;2.43;2.10;;;;;;;;;;5074235;28;20533;-59
2022/04/01 02:34:43;;;;;;;2.43;2.20;;;;;;;;;;5074055;28;20564;-59
2022/04/01 02:37:10;;;;;;;2.30;1.90;;;;;;;;;;5073854;28;20513;-59
2022/04/01 02:39:37;;;;;;;2.73;2.00;;;;;;;;;;5074046;28;20211;-59
2022/04/01 02:42:03;;;;;;;4.27;2.57;;;;;;;;;;5073705;28;20503;-59
2022/04/01 02:44:29;;;;;;;4.80;2.33;;;;;;;;;;5073835;28;20936;-59
2022/04/01 02:46:55;;;;;;;3.10;2.20;;;;;;;;;;5073731;28;20444;-59
2022/04/01 02:49:23;;;;;;;3.77;2.70;;;;;;;;;;5073685;28;20203;-57
2022/04/01 02:51:49;;;;;;;4.37;2.33;;;;;;;;;;5073459;28;20223;-57
2022/04/01 02:54:15;;;;;;;4.33;2.40;;;;;;;;;;5073540;28;20478;-58
2022/04/01 02:56:41;;;;;;;2.37;2.17;;;;;;;;;;5073487;28;20859;-57
2022/04/01 02:59:08;;;;;;;2.30;2.10;;;;;;;;;;5071882;28;20442;-57
2022/04/01 03:01:35;;;;;;;2.40;2.20;;;;;;;;;;5073429;28;20533;-58
2022/04/01 03:04:02;;;;;;;3.10;2.40;;;;;;;;;;5073338;28;20448;-57
2022/04/01 03:06:29;;;;;;;2.47;2.27;;;;;;;;;;5073202;28;20434;-57
2022/04/01 03:08:55;;;;;;;5.00;2.50;;;;;;;;;;5073260;28;20438;-58
2022/04/01 03:11:21;;;;;;;4.93;2.40;;;;;;;;;;5073297;28;20516;-57
2022/04/01 03:13:47;;;;;;;4.20;2.57;;;;;;;;;;5073141;28;20322;-57
2022/04/01 03:16:13;;;;;;;3.43;2.70;;;;;;;;;;5073449;28;20460;-57
2022/04/01 03:18:40;;;;;;;3.47;2.50;;;;;;;;;;5072964;28;20302;-57
2022/04/01 03:21:06;;;;;;;3.60;2.73;;;;;;;;;;5072977;28;20230;-58
2022/04/01 03:23:34;;;;;;;4.17;2.80;;;;;;;;;;5072800;28;20460;-58
2022/04/01 03:26:00;;;;;;;3.50;2.30;;;;;;;;;;5072803;28;20445;-58
2022/04/01 03:28:26;;;;;;;3.83;2.67;;;;;;;;;;5073059;28;20445;-58
2022/04/01 03:30:52;;;;;;;5.20;2.53;;;;;;;;;;5072899;28;20677;-58
2022/04/01 03:33:18;;;;;;;3.43;2.70;;;;;;;;;;5072954;28;20493;-58
2022/04/01 03:35:46;;;;;;;3.27;2.80;;;;;;;;;;5072935;28;20476;-58
2022/04/01 03:38:12;;;;;;;5.23;2.50;;;;;;;;;;5072817;28;20187;-58
2022/04/01 03:40:40;;;;;;;3.43;2.70;;;;;;;;;;5072695;28;21168;-60
2022/04/01 03:43:06;;;;;;;2.80;2.50;;;;;;;;;;5072553;28;20457;-60
2022/04/01 03:45:34;;;;;;;3.07;2.70;;;;;;;;;;5072685;28;20810;-60
2022/04/01 03:48:04;;;;;;;3.90;2.60;;;;;;;;;;5072490;28;20503;-60
2022/04/01 03:50:32;;;;;;;3.37;2.47;;;;;;;;;;5072715;28;20472;-59
2022/04/01 03:53:04;;;;;;;3.97;2.57;;;;;;;;;;5072303;28;20462;-59
2022/04/01 03:55:31;;;;;;;3.20;2.77;;;;;;;;;;5072529;28;20496;-59
2022/04/01 03:58:01;;;;;;;6.03;2.80;;;;;;;;;;5072332;28;20450;-58
2022/04/01 04:00:29;;;;;;;3.33;2.60;;;;;;;;;;5072619;28;20491;-60
2022/04/01 04:02:55;;;;;;;2.87;2.57;;;;;;;;;;5072194;28;20422;-60
2022/04/01 04:05:22;;;;;;;3.00;2.47;;;;;;;;;;5072341;28;20499;-60
2022/04/01 04:07:48;;;;;;;3.90;2.87;;;;;;;;;;5072167;28;20492;-60
2022/04/01 04:10:15;;;;;;;3.87;2.47;;;;;;;;;;5072312;28;20998;-60
2022/04/01 04:12:43;;;;;;;4.50;2.20;;;;;;;;;;5072076;28;20496;-60
2022/04/01 04:15:10;;;;;;;3.37;2.60;;;;;;;;;;5072123;28;20450;-60
2022/04/01 04:17:44;;;;;;;6.13;2.63;;;;;;;;;;5070755;28;20453;-58
2022/04/01 04:20:13;;;;;;;4.37;2.80;;;;;;;;;;5072222;28;20445;-58
2022/04/01 04:22:46;;;;;;;4.50;2.53;;;;;;;;;;5071853;28;20465;-58
2022/04/01 04:25:14;;;;;;;4.63;2.80;;;;;;;;;;5071947;28;20492;-58
2022/04/01 04:27:51;;;;;;;4.13;2.60;;;;;;;;;;5071853;28;20496;-58
2022/04/01 04:30:18;;;;;;;3.00;2.70;;;;;;;;;;5071947;28;20442;-59
2022/04/01 04:32:50;;;;;;;6.23;2.73;;;;;;;;;;5071927;28;20496;-58
2022/04/01 04:35:16;;;;;;;3.27;2.80;;;;;;;;;;5072033;28;20449;-59
2022/04/01 04:37:44;;;;;;;3.47;2.73;;;;;;;;;;5071972;28;20862;-59
2022/04/01 04:40:12;;;;;;;3.00;2.70;;;;;;;;;;5071752;28;20429;-58
2022/04/01 04:42:44;;;;;;;4.03;2.70;;;;;;;;;;5071974;28;20504;-59
2022/04/01 04:45:11;;;;;;;2.83;2.40;;;;;;;;;;5072011;28;20469;-58
2022/04/01 04:47:38;;;;;;;3.57;2.80;;;;;;;;;;5071633;28;20446;-58
2022/04/01 04:50:05;;;;;;;4.33;3.13;;;;;;;;;;5071500;28;21008;-62
2022/04/01 04:52:32;;;;;;;3.70;3.13;;;;;;;;;;5071533;28;20449;-59
2022/04/01 04:54:59;;;;;;;3.97;3.20;;;;;;;;;;5071629;28;21016;-58
2022/04/01 04:57:26;;;;;;;3.50;3.10;;;;;;;;;;5071560;28;20433;-59
2022/04/01 04:59:53;;;;;;;3.70;3.10;;;;;;;;;;5071634;28;20528;-59
2022/04/01 05:02:26;;;;;;;3.17;2.70;;;;;;;;;;5071694;28;20810;-58
2022/04/01 05:05:02;;;;;;;4.77;3.30;;;;;;;;;;5071619;28;20430;-58
2022/04/01 05:07:39;;;;;;;4.67;2.93;;;;;;;;;;5071683;28;20496;-59
2022/04/01 05:10:09;;;;;;;3.40;2.97;;;;;;;;;;5071451;28;20442;-59
2022/04/01 05:12:38;;;;;;;4.93;3.13;;;;;;;;;;5071153;28;20453;-59
2022/04/01 05:15:05;;;;;;;4.73;3.20;;;;;;;;;;5070920;28;20442;-58
2022/04/01 05:17:36;;;;;;;4.23;3.20;;;;;;;;;;5071154;28;20832;-58
2022/04/01 05:20:04;;;;;;;4.40;3.20;;;;;;;;;;5070520;28;20437;-58
2022/04/01 05:22:36;;;;;;;5.83;2.83;;;;;;;;;;5071223;28;20521;-58
2022/04/01 05:25:03;;;;;;;3.27;2.97;;;;;;;;;;5071292;28;20843;-58
2022/04/01 05:27:30;;;;;;;4.77;3.13;;;;;;;;;;5071872;28;20469;-59
2022/04/01 05:30:01;;;;;;;4.57;3.10;;;;;;;;;;5075332;28;20476;-59
2022/04/01 05:32:31;;;;;;;3.37;2.80;;;;;;;;;;5074812;28;20812;-58
2022/04/01 05:35:00;;;;;;;4.47;3.00;;;;;;;;;;5056332;28;20489;-58
2022/04/01 05:37:29;;;;;;;3.73;3.33;;;;;;;;;;5054306;28;20469;-58
2022/04/01 05:39:56;;;;;;;5.10;2.83;;;;;;;;;;5054228;28;20442;-59
2022/04/01 05:42:22;;;;;;;4.03;3.43;;;;;;;;;;5054368;28;20518;-58
2022/04/01 05:44:49;;;;;;;3.70;2.63;;;;;;;;;;5054220;28;20422;-60
2022/04/01 05:47:16;;;;;;;3.20;2.93;;;;;;;;;;5054512;28;20430;-58
2022/04/01 05:49:43;;;;;;;4.00;2.80;;;;;;;;;;5054276;28;20534;-58
2022/04/01 05:52:10;;;;;;;3.10;2.80;;;;;;;;;;5052578;28;20996;-58
2022/04/01 05:54:38;;;;;;;3.93;3.03;;;;;;;;;;5054160;28;20482;-58
2022/04/01 05:57:04;;;;;;;3.00;2.67;;;;;;;;;;5054044;28;20435;-59
2022/04/01 05:59:32;;;;;;;4.63;3.47;;;;;;;;;;5054303;28;20480;-59
2022/04/01 06:02:07;;;;;;;4.30;3.37;;;;;;;;;;5053970;28;20460;-59
2022/04/01 06:04:59;;;;;;;5.23;3.07;;;;;;;;;;5053998;28;20442;-58
2022/04/01 06:07:28;;;;;;;3.47;3.13;;;;;;;;;;5054237;28;20440;-58
2022/04/01 06:10:01;;;;;;;3.80;2.70;;;;;;;;;;5053665;28;20443;-62
2022/04/01 06:12:29;;;;;;;4.10;2.80;;;;;;;;;;5054230;28;20865;-58
2022/04/01 06:15:01;;;;;;;5.53;3.40;;;;;;;;;;5053728;28;20478;-58
2022/04/01 06:17:37;;;;;;;3.33;2.90;;;;;;;;;;5054077;28;20530;-60
2022/04/01 06:20:07;;;;;;;4.07;2.90;;;;;;;;;;5053843;28;21000;-59
2022/04/01 06:22:36;;;;;;;3.60;2.90;;;;;;;;;;5053534;28;20989;-60
2022/04/01 06:25:13;;;;;;;3.17;2.47;;;;;;;;;;5053795;28;20466;-59
2022/04/01 06:27:42;;;;;;;3.77;2.70;;;;;;;;;;5053635;28;20544;-60
2022/04/01 06:30:09;;;;;;;3.77;2.57;;;;;;;;;;5053303;28;20559;-59
2022/04/01 06:32:41;;;;;;;4.40;2.80;;;;;;;;;;5054082;28;20435;-60
2022/04/01 06:35:09;;;;;;;3.40;2.47;;;;;;;;;;5053944;28;20441;-59
2022/04/01 06:37:37;;;;;;;4.17;2.43;;;;;;;;;;5053694;28;20504;-60
2022/04/01 06:40:06;;;;;;;3.47;2.70;;;;;;;;;;5053116;28;20553;-59
2022/04/01 06:42:34;;;;;;;3.20;2.87;;;;;;;;;;5053578;28;20499;-59
2022/04/01 06:45:00;;;;;;;3.60;2.53;;;;;;;;;;5073326;28;20860;-60
2022/04/01 06:47:26;;;;;;;4.97;2.80;;;;;;;;;;5073541;28;20448;-58
2022/04/01 06:49:52;;;;;;;3.53;2.67;;;;;;;;;;5073293;28;21227;-59
2022/04/01 06:52:19;;;;;;;4.07;2.73;;;;;;;;;;5073273;28;20669;-58
2022/04/01 06:54:46;;;;;;;3.23;2.47;;;;;;;;;;5073047;28;20473;-58
2022/04/01 06:57:14;;;;;;;3.33;2.40;;;;;;;;;;5073282;28;20774;-58
2022/04/01 06:59:40;;;;;;;2.57;2.27;;;;;;;;;;5073233;28;21009;-58
2022/04/01 07:02:07;;;;;;;6.43;2.90;;;;;;;;;;5071296;28;20436;-58
2022/04/01 07:04:33;;;;;;;3.20;2.33;;;;;;;;;;5073209;28;20575;-59
2022/04/01 07:06:59;;;;;;;3.57;2.43;;;;;;;;;;5073088;28;20438;-59
2022/04/01 07:09:25;;;;;;;2.80;2.60;;;;;;;;;;5073363;28;20200;-59
2022/04/01 07:11:53;;;;;;;4.63;2.57;;;;;;;;;;5073123;28;20483;-59
2022/04/01 07:14:21;;;;;;;3.93;2.43;;;;;;;;;;5073001;28;21080;-59
2022/04/01 07:16:47;;;;;;;3.17;2.57;;;;;;;;;;5072804;28;20837;-58
2022/04/01 07:19:13;;;;;;;5.43;2.93;;;;;;;;;;5072729;28;20433;-58
2022/04/01 07:21:39;;;;;;;4.13;2.50;;;;;;;;;;5072685;28;20568;-58
2022/04/01 07:24:06;;;;;;;5.80;2.93;;;;;;;;;;5072247;28;20211;-58
2022/04/01 07:26:32;;;;;;;2.93;2.63;;;;;;;;;;5072547;28;20465;-58
2022/04/01 07:28:58;;;;;;;5.23;2.90;;;;;;;;;;5072672;28;20445;-58
2022/04/01 07:34:11;;;;;;;3.10;2.50;;;;;;;;;;5072545;28;20222;-56
2022/04/01 07:36:37;;;;;;;2.80;2.60;;;;;;;;;;5072671;28;20809;-55
2022/04/01 07:39:03;;;;;;;3.50;3.20;;;;;;;;;;5072339;28;20199;-56
2022/04/01 07:41:29;;;;;;;4.63;3.20;;;;;;;;;;5072463;28;20444;-55
2022/04/01 07:43:55;;;;;;;3.80;2.60;;;;;;;;;;5072299;28;20426;-55
2022/04/01 07:46:22;;;;;;;3.30;3.00;;;;;;;;;;5072351;28;20448;-55
2022/04/01 07:48:49;;;;;;;3.60;2.70;;;;;;;;;;5072339;28;20430;-55
2022/04/01 07:51:15;;;;;;;5.57;3.00;;;;;;;;;;5071588;28;20446;-55
2022/04/01 07:53:41;;;;;;;2.93;2.50;;;;;;;;;;5072475;28;20519;-55
2022/04/01 07:56:07;;;;;;;4.80;3.30;;;;;;;;;;5072347;28;20207;-55
2022/04/01 07:58:33;;;;;;;3.10;2.80;;;;;;;;;;5072324;28;20206;-55
2022/04/01 08:00:59;;;;;;;3.50;2.63;;;;;;;;;;5072221;28;20430;-55
2022/04/01 08:03:25;;;;;;;3.97;2.63;;;;;;;;;;5072206;28;20195;-56
2022/04/01 08:05:52;;;;;;;2.77;2.57;;;;;;;;;;5072395;28;20291;-56
2022/04/01 08:08:19;;;;;;;4.33;2.97;;;;;;;;;;5072388;28;20445;-57
2022/04/01 08:10:45;;;;;;;3.60;2.77;;;;;;;;;;5072184;28;20483;-55
2022/04/01 08:13:11;;;;;;;3.53;2.70;;;;;;;;;;5071974;28;20470;-56
2022/04/01 08:15:37;;;;;;;3.40;2.80;;;;;;;;;;5072075;28;20204;-55
2022/04/01 08:18:03;;;;;;;3.23;2.93;;;;;;;;;;5071981;28;20564;-56
2022/04/01 08:20:30;;;;;;;4.70;2.80;;;;;;;;;;5071611;28;20475;-55
2022/04/01 08:22:57;;;;;;;4.00;3.20;;;;;;;;;;5071952;28;20442;-55
2022/04/01 08:25:23;;;;;;;3.27;2.97;;;;;;;;;;5071779;28;20847;-56
2022/04/01 08:27:49;;;;;;;3.87;3.00;;;;;;;;;;5071478;28;20473;-55
2022/04/01 08:30:15;;;;;;;4.20;2.90;;;;;;;;;;5072126;28;20191;-55
2022/04/01 08:32:41;;;;;;;7.17;2.97;;;;;;;;;;5071830;28;20433;-55
2022/04/01 08:35:08;;;;;;;4.27;2.77;;;;;;;;;;5071533;28;20477;-55
2022/04/01 08:37:34;;;;;;;4.20;2.90;;;;;;;;;;5071492;28;20450;-55
2022/04/01 08:40:03;;;;;;;4.53;2.77;;;;;;;;;;5071690;28;20960;-55
2022/04/01 08:42:29;;;;;;;3.30;2.87;;;;;;;;;;5072020;28;20442;-55
2022/04/01 08:44:55;;;;;;;3.07;2.50;;;;;;;;;;5071356;28;20441;-54
2022/04/01 08:47:21;;;;;;;5.60;2.90;;;;;;;;;;5071830;28;20188;-55
2022/04/01 08:49:47;;;;;;;5.30;3.23;;;;;;;;;;5070133;28;20191;-55
2022/04/01 08:52:13;;;;;;;4.13;3.23;;;;;;;;;;5070012;28;20195;-55
2022/04/01 08:54:39;;;;;;;4.50;2.87;;;;;;;;;;5071660;28;20477;-55
2022/04/01 08:57:08;;;;;;;4.00;2.97;;;;;;;;;;5071723;28;20479;-55
2022/04/01 08:59:35;;;;;;;3.07;2.77;;;;;;;;;;5071891;28;20290;-55
2022/04/01 09:02:05;;;;;;;4.77;2.80;;;;;;;;;;5071663;28;20916;-56
2022/04/01 09:04:31;;;;;;;4.63;3.03;;;;;;;;;;5075586;28;20441;-56
2022/04/01 09:06:57;;;;;;;3.77;3.40;;;;;;;;;;5075586;28;20959;-55
2022/04/01 09:09:24;;;;;;;3.63;2.90;;;;;;;;;;5075599;28;20845;-56
2022/04/01 09:12:03;;;;;;;4.40;3.03;;;;;;;;;;5075472;28;20441;-55
2022/04/01 09:14:30;;;;;;;3.27;2.97;;;;;;;;;;5075582;28;20594;-54
2022/04/01 09:16:56;;;;;;;4.67;3.10;;;;;;;;;;5075722;28;20452;-54
2022/04/01 09:19:29;;;;;;;3.03;2.70;;;;;;;;;;5075607;28;20445;-55
2022/04/01 09:21:55;;;;;;;4.20;3.03;;;;;;;;;;5075359;28;20205;-55
2022/04/01 09:24:20;;;;;;;3.33;3.00;;;;;;;;;;5075432;28;20453;-55
2022/04/01 09:26:47;;;;;;;3.10;2.47;;;;;;;;;;5075218;28;20296;-55
2022/04/01 09:29:13;;;;;;;4.03;2.90;;;;;;;;;;5075229;28;20260;-55
2022/04/01 09:31:41;;;;;;;3.17;2.47;;;;;;;;;;5075338;28;20532;-54
2022/04/01 09:34:10;;;;;;;2.47;2.23;;;;;;;;;;5075462;28;20471;-54
2022/04/01 09:36:41;;;;;;;5.43;2.60;;;;;;;;;;5074726;28;20714;-55
2022/04/01 09:39:08;;;;;;;3.40;2.40;;;;;;;;;;5074736;28;20442;-55
2022/04/01 09:41:36;;;;;;;4.13;2.60;;;;;;;;;;5074712;28;20426;-55
2022/04/01 09:44:04;;;;;;;3.90;2.60;;;;;;;;;;5074776;28;20509;-55
2022/04/01 09:46:30;;;;;;;2.77;2.57;;;;;;;;;;5074917;28;20856;-55
2022/04/01 09:48:58;;;;;;;3.70;2.40;;;;;;;;;;5074664;28;20442;-55
2022/04/01 09:51:29;;;;;;;2.30;2.10;;;;;;;;;;5074342;28;20947;-55
2022/04/01 09:53:58;;;;;;;6.57;2.30;;;;;;;;;;5074602;28;20469;-54
2022/04/01 09:56:35;;;;;;;3.40;2.43;;;;;;;;;;5074535;28;20437;-54
2022/04/01 09:59:02;;;;;;;4.73;2.80;;;;;;;;;;5074551;28;20461;-55
2022/04/01 10:01:28;;;;;;;2.70;2.40;;;;;;;;;;5074634;28;20446;-54
2022/04/01 10:03:55;;;;;;;5.23;2.60;;;;;;;;;;5074340;28;20943;-54
2022/04/01 10:06:23;;;;;;;3.33;2.50;;;;;;;;;;5074012;28;20970;-55
2022/04/01 10:08:50;;;;;;;3.87;2.80;;;;;;;;;;5074338;28;20454;-54
2022/04/01 10:11:16;;;;;;;3.93;2.80;;;;;;;;;;5074402;28;20430;-54
2022/04/01 10:13:42;;;;;;;4.37;2.60;;;;;;;;;;5074193;28;20520;-54
2022/04/01 10:16:09;;;;;;;4.10;2.80;;;;;;;;;;5073321;28;20437;-54
2022/04/01 10:18:36;;;;;;;4.40;2.40;;;;;;;;;;5074151;28;20458;-55
2022/04/01 10:21:03;;;;;;;2.97;2.50;;;;;;;;;;5074123;28;20521;-54
2022/04/01 10:23:33;;;;;;;2.83;2.30;;;;;;;;;;5074119;28;20464;-55
2022/04/01 10:26:00;;;;;;;5.80;2.40;;;;;;;;;;5073998;28;20443;-54
2022/04/01 10:28:27;;;;;;;3.17;2.30;;;;;;;;;;5073925;28;20449;-57
2022/04/01 10:30:54;;;;;;;4.27;2.40;;;;;;;;;;5073812;28;20461;-54
2022/04/01 10:33:24;;;;;;;2.67;2.47;;;;;;;;;;5073742;28;20442;-53
2022/04/01 10:35:50;;;;;;;4.53;2.37;;;;;;;;;;5073771;28;20468;-54
2022/04/01 10:38:17;;;;;;;5.00;2.80;;;;;;;;;;5073782;28;20438;-54
2022/04/01 10:40:45;;;;;;;2.63;2.30;;;;;;;;;;5073680;28;20446;-55
2022/04/01 10:43:13;;;;;;;3.07;2.30;;;;;;;;;;5073552;28;20487;-54
2022/04/01 10:45:39;;;;;;;2.60;2.00;;;;;;;;;;5073688;28;20442;-54
2022/04/01 10:53:59;;;;;;;3.23;2.40;;;;;;;;;;5073364;28;20462;-55
2022/04/01 10:56:27;;;;;;;6.37;2.70;;;;;;;;;;5073450;28;20813;-53
2022/04/01 10:59:00;;;;;;;5.47;3.17;;;;;;;;;;5073158;28;20465;-54
2022/04/01 11:01:26;;;;;;;2.70;1.80;;;;;;;;;;5073504;28;20434;-54
2022/04/01 11:03:52;;;;;;;5.40;2.47;;;;;;;;;;5073112;28;20430;-54
2022/04/01 11:06:22;;;;;;;2.40;2.00;;;;;;;;;;5072957;28;20640;-55
2022/04/01 11:08:51;;;;;;;2.67;2.20;;;;;;;;;;5072948;28;20845;-54
2022/04/01 11:11:17;;;;;;;2.70;2.13;;;;;;;;;;5072827;28;20434;-54
2022/04/01 11:14:01;;;;;;;4.00;2.70;;;;;;;;;;5072904;28;20556;-54
2022/04/01 11:16:27;;;;;;;2.83;2.50;;;;;;;;;;5072849;28;20438;-54
2022/04/01 11:19:12;;;;;;;3.73;2.50;;;;;;;;;;5072923;28;20440;-54
2022/04/01 11:21:39;;;;;;;2.10;1.90;;;;;;;;;;5072893;28;20749;-54
2022/04/01 11:24:21;;;;;;;4.60;2.60;;;;;;;;;;5072688;28;20606;-55
2022/04/01 11:26:47;;;;;;;5.67;2.30;;;;;;;;;;5072472;28;20492;-55
2022/04/01 11:29:22;;;;;;;3.70;2.23;;;;;;;;;;5073039;28;20936;-54
2022/04/01 11:31:48;;;;;;;4.63;2.40;;;;;;;;;;5072378;28;20199;-55
2022/04/01 11:34:14;;;;;;;2.67;2.20;;;;;;;;;;5072387;28;21057;-55
2022/04/01 11:36:41;;;;;;;2.40;2.20;;;;;;;;;;5072486;28;20495;-55
2022/04/01 11:39:10;;;;;;;4.80;2.50;;;;;;;;;;5072402;28;20438;-54
2022/04/01 11:41:51;;;;;;;3.07;2.40;;;;;;;;;;5072413;28;20892;-54
2022/04/01 11:44:17;;;;;;;5.23;2.20;;;;;;;;;;5072399;28;20936;-55
2022/04/01 11:46:51;;;;;;;3.63;2.60;;;;;;;;;;5072512;28;20426;-54
2022/04/01 11:49:17;;;;;;;4.30;2.27;;;;;;;;;;5072184;28;20462;-54
2022/04/01 11:51:43;;;;;;;5.17;2.90;;;;;;;;;;5072246;28;20514;-57
2022/04/01 11:54:10;;;;;;;4.57;3.47;;;;;;;;;;5071974;28;20496;-54
2022/04/01 11:56:36;;;;;;;3.83;2.40;;;;;;;;;;5072103;28;20444;-54
2022/04/01 11:59:03;;;;;;;2.97;2.37;;;;;;;;;;5072064;28;20495;-55
2022/04/01 12:01:30;;;;;;;4.10;2.33;;;;;;;;;;5072132;28;20437;-54
2022/04/01 12:04:07;;;;;;;3.57;2.57;;;;;;;;;;5072057;28;20434;-54
2022/04/01 12:09:33;;;;;;;8.20;2.83;;;;;;;;;;5070581;28;20438;-54
2022/04/01 12:12:01;;;;;;;4.70;2.73;;;;;;;;;;5072182;28;20563;-54
2022/04/01 12:14:28;;;;;;;3.10;2.40;;;;;;;;;;5072106;28;20602;-53
2022/04/01 12:16:53;;;;;;;3.57;2.53;;;;;;;;;;5071625;28;20433;-53
2022/04/01 12:19:21;;;;;;;3.43;2.30;;;;;;;;;;5071669;28;20434;-54
2022/04/01 12:21:48;;;;;;;4.87;2.60;;;;;;;;;;5071677;28;20203;-53
2022/04/01 12:24:14;;;;;;;3.57;2.93;;;;;;;;;;5071561;28;20461;-54
2022/04/01 12:26:41;;;;;;;6.83;2.87;;;;;;;;;;5071364;28;20474;-53
2022/04/01 12:29:17;;;;;;;9.50;2.63;;;;;;;;;;5071487;28;20438;-55
2022/04/01 12:31:49;;;;;;;4.87;2.43;;;;;;;;;;5071820;28;20931;-55
2022/04/01 12:34:15;;;;;;;3.57;2.50;;;;;;;;;;5071726;28;20572;-55
2022/04/01 12:36:42;;;;;;;4.13;2.77;;;;;;;;;;5071655;28;20516;-55
2022/04/01 12:39:09;;;;;;;3.00;2.53;;;;;;;;;;5071001;28;20208;-55
2022/04/01 12:41:35;;;;;;;3.67;2.27;;;;;;;;;;5064193;28;20440;-53
2022/04/01 12:44:11;;;;;;;3.00;2.50;;;;;;;;;;5071508;28;20995;-54
2022/04/01 12:46:37;;;;;;;6.93;2.53;;;;;;;;;;5070987;28;20788;-53
2022/04/01 12:49:11;;;;;;;4.07;2.57;;;;;;;;;;5071464;28;20464;-54
2022/04/01 12:51:38;;;;;;;4.10;2.60;;;;;;;;;;5071635;28;20515;-53
2022/04/01 12:54:08;;;;;;;5.03;2.43;;;;;;;;;;5071491;28;20496;-51
2022/04/01 12:56:35;;;;;;;4.30;2.60;;;;;;;;;;5071559;28;20508;-52
2022/04/01 12:59:04;;;;;;;3.80;2.07;;;;;;;;;;5071547;28;20441;-51
2022/04/01 13:01:31;;;;;;;6.30;3.43;;;;;;;;;;5071755;28;20442;-52
2022/04/01 13:03:57;;;;;;;4.73;2.60;;;;;;;;;;5071533;28;20505;-53
2022/04/01 13:06:25;;;;;;;3.57;2.47;;;;;;;;;;5071383;28;20481;-53
2022/04/01 13:09:03;;;;;;;2.70;2.50;;;;;;;;;;5071313;28;20514;-53
2022/04/01 13:11:37;;;;;;;3.20;2.70;;;;;;;;;;5069925;28;20508;-54
2022/04/01 13:14:04;;;;;;;2.50;2.30;;;;;;;;;;5071124;28;20477;-53
2022/04/01 13:16:35;;;;;;;3.87;2.67;;;;;;;;;;5071330;28;20462;-54
2022/04/01 13:19:16;;;;;;;4.80;2.27;;;;;;;;;;5071245;28;20833;-52
2022/04/01 13:21:42;;;;;;;2.40;2.03;;;;;;;;;;5071359;28;20488;-54
2022/04/01 13:24:08;;;;;;;3.67;2.70;;;;;;;;;;5070881;28;20496;-53
2022/04/01 13:26:34;;;;;;;4.43;2.40;;;;;;;;;;5062058;28;20477;-53
2022/04/01 13:29:01;;;;;;;3.77;2.53;;;;;;;;;;5070066;28;20282;-52
2022/04/01 13:31:28;;;;;;;3.57;2.50;;;;;;;;;;5071263;28;20204;-52
2022/04/01 13:33:56;;;;;;;4.77;2.70;;;;;;;;;;5070504;28;20771;-53
2022/04/01 13:36:23;;;;;;;4.00;2.50;;;;;;;;;;5071103;28;20504;-52
2022/04/01 13:38:49;;;;;;;5.20;2.47;;;;;;;;;;5070939;28;20762;-52
2022/04/01 13:41:15;;;;;;;4.93;2.40;;;;;;;;;;5070950;28;20226;-54
2022/04/01 13:43:41;;;;;;;3.57;2.27;;;;;;;;;;5071313;28;20943;-54
2022/04/01 13:46:09;;;;;;;2.63;2.20;;;;;;;;;;5070705;28;20206;-53
2022/04/01 13:48:35;;;;;;;3.10;2.43;;;;;;;;;;5070708;28;20203;-53
2022/04/01 13:51:02;;;;;;;5.43;3.07;;;;;;;;;;5073078;28;20487;-52
2022/04/01 13:53:28;;;;;;;3.83;2.63;;;;;;;;;;5074670;28;20195;-52
2022/04/01 13:55:54;;;;;;;3.43;2.40;;;;;;;;;;5070590;28;20504;-53
2022/04/01 13:58:20;;;;;;;4.07;2.17;;;;;;;;;;5074628;28;20562;-55
2022/04/01 14:00:46;;;;;;;4.90;2.63;;;;;;;;;;5074527;28;20717;-53
2022/04/01 14:03:14;;;;;;;3.37;2.30;;;;;;;;;;5074390;28;20517;-53
2022/04/01 14:05:40;;;;;;;3.47;2.30;;;;;;;;;;5074070;28;20564;-54
2022/04/01 14:08:06;;;;;;;4.50;2.23;;;;;;;;;;5074132;28;20794;-54
2022/04/01 14:10:32;;;;;;;4.03;2.37;;;;;;;;;;5074508;28;20445;-54
2022/04/01 14:12:58;;;;;;;3.37;2.30;;;;;;;;;;5074313;28;20512;-54
2022/04/01 14:15:24;;;;;;;2.70;2.10;;;;;;;;;;5074227;28;20227;-55
2022/04/01 14:17:50;;;;;;;4.20;2.10;;;;;;;;;;5074063;28;20245;-54
2022/04/01 14:20:17;;;;;;;2.50;2.30;;;;;;;;;;5074071;28;20437;-54
2022/04/01 14:22:43;;;;;;;2.20;2.00;;;;;;;;;;5074276;28;20303;-53
2022/04/01 14:25:10;;;;;;;3.10;2.10;;;;;;;;;;5073966;28;20537;-54
2022/04/01 14:27:36;;;;;;;3.40;2.53;;;;;;;;;;5073946;28;20659;-53
2022/04/01 14:30:19;;;;;;;5.27;2.20;;;;;;;;;;5073928;28;20531;-54
2022/04/01 14:32:45;;;;;;;2.47;2.27;;;;;;;;;;5073876;28;20654;-53
2022/04/01 14:35:11;;;;;;;3.83;2.40;;;;;;;;;;5073667;28;20485;-54
2022/04/01 14:37:38;;;;;;;4.73;2.20;;;;;;;;;;5073829;28;20442;-54
2022/04/01 14:40:05;;;;;;;2.47;2.27;;;;;;;;;;5073681;28;20689;-54
2022/04/01 14:42:31;;;;;;;3.87;2.80;;;;;;;;;;5073821;28;20829;-55
2022/04/01 14:44:59;;;;;;;3.87;2.57;;;;;;;;;;5073880;28;20821;-54
2022/04/01 14:47:25;;;;;;;3.37;2.40;;;;;;;;;;5073780;28;20747;-54
2022/04/01 14:49:51;;;;;;;3.07;2.30;;;;;;;;;;5073610;28;20512;-55
2022/04/01 14:52:17;;;;;;;4.53;2.27;;;;;;;;;;5073818;28;20796;-55
2022/04/01 14:54:45;;;;;;;3.03;2.10;;;;;;;;;;5073535;28;20931;-55
2022/04/01 14:57:11;;;;;;;3.23;2.53;;;;;;;;;;5073278;28;20434;-54
2022/04/01 14:59:37;;;;;;;3.80;2.27;;;;;;;;;;5073304;28;20508;-54
2022/04/01 15:02:03;;;;;;;4.50;2.50;;;;;;;;;;5072830;28;20792;-55
2022/04/01 15:04:29;;;;;;;5.50;2.77;;;;;;;;;;5073357;28;20528;-54